createdAt,value
2024-02-18T00:03:09.777Z,101837.31
2024-02-18T00:13:12.593Z,101830.25
2024-02-18T00:23:16.747Z,101826.41
2024-02-18T00:33:19.719Z,101827.81
2024-02-18T00:43:24.020Z,101819.75
2024-02-18T00:53:26.823Z,101813.91
2024-02-18T01:03:31.117Z,101806.13
2024-02-18T01:13:34.037Z,101798.72
2024-02-18T01:23:38.396Z,101795.31
2024-02-18T01:33:43.952Z,101787.13
2024-02-18T01:43:48.299Z,101788.00
2024-02-18T01:53:52.319Z,101777.78
2024-02-18T02:03:58.594Z,101775.50
2024-02-18T02:14:03.189Z,101764.44
2024-02-18T02:24:07.598Z,101769.16
2024-02-18T02:34:11.909Z,101770.44
2024-02-18T02:44:14.971Z,101760.06
2024-02-18T02:54:19.304Z,101754.69
2024-02-18T03:04:22.455Z,101750.38
2024-02-18T03:14:26.676Z,101742.47
2024-02-18T03:24:29.901Z,101733.75
2024-02-18T03:34:34.279Z,101701.91
2024-02-18T03:44:37.100Z,101726.75
2024-02-18T03:54:41.305Z,101729.22
2024-02-18T04:04:44.277Z,101720.38
2024-02-18T04:14:48.589Z,101706.38
2024-02-18T04:24:51.433Z,101710.88
2024-02-18T04:34:55.830Z,101704.16
2024-02-18T04:44:58.734Z,101692.44
2024-02-18T04:55:03.200Z,101691.09
2024-02-18T05:05:06.700Z,101678.44
2024-02-18T05:15:11.387Z,101668.41
2024-02-18T05:25:14.215Z,101675.72
2024-02-18T05:35:18.524Z,101653.38
2024-02-18T05:45:23.723Z,101641.91
2024-02-18T05:55:27.989Z,101645.09
2024-02-18T06:05:30.801Z,101656.41
2024-02-18T06:15:35.054Z,101649.44
2024-02-18T06:25:38.604Z,101641.81
2024-02-18T06:35:44.472Z,101645.91
2024-02-18T06:45:47.537Z,101635.47
2024-02-18T06:55:51.902Z,101635.53
2024-02-18T07:05:54.787Z,101623.50
2024-02-18T07:15:58.989Z,101629.31
2024-02-18T07:26:01.862Z,101628.44
2024-02-18T07:36:06.651Z,101613.28
2024-02-18T07:46:10.021Z,101613.44
2024-02-18T07:56:15.617Z,101612.41
2024-02-18T08:06:18.499Z,101605.41
2024-02-18T08:16:22.762Z,101601.00
2024-02-18T08:26:26.675Z,101574.22
2024-02-18T08:36:31.032Z,101565.25
2024-02-18T08:46:36.278Z,101568.56
2024-02-18T08:56:41.329Z,101566.19
2024-02-18T09:06:44.269Z,101558.72
2024-02-18T09:16:49.241Z,101556.13
2024-02-18T09:26:52.047Z,101556.63
2024-02-18T09:36:56.344Z,101555.91
2024-02-18T09:47:00.828Z,101538.13
2024-02-18T09:57:07.605Z,101511.09
2024-02-18T10:07:10.496Z,101497.53
2024-02-18T10:17:16.165Z,101474.75
2024-02-18T10:27:19.854Z,101466.59
2024-02-18T10:37:29.007Z,101454.25
2024-02-18T10:47:33.768Z,101439.94
2024-02-18T10:57:41.959Z,101444.66
2024-02-18T11:07:45.664Z,101418.97
2024-02-18T11:17:50.233Z,101393.03
2024-02-18T11:27:53.174Z,101382.25
2024-02-18T11:37:58.698Z,101353.28
2024-02-18T11:48:03.926Z,101334.97
2024-02-18T11:58:08.259Z,101317.38
2024-02-18T12:08:19.479Z,101306.09
2024-02-18T12:18:22.322Z,101304.06
2024-02-18T12:28:26.567Z,101291.31
2024-02-18T12:38:29.672Z,101292.19
2024-02-18T12:48:34.098Z,101272.81
2024-02-18T12:58:37.557Z,101252.34
2024-02-18T13:08:41.743Z,101220.75
2024-02-18T13:18:44.851Z,101184.31
2024-02-18T13:28:50.195Z,101165.13
2024-02-18T13:38:53.121Z,101132.28
2024-02-18T13:48:57.406Z,101108.59
2024-02-18T13:59:00.261Z,101103.69
2024-02-18T14:09:07.427Z,101087.72
2024-02-18T14:19:11.295Z,101072.47
2024-02-18T14:29:15.559Z,101067.56
2024-02-18T14:39:18.413Z,101068.22
2024-02-18T14:49:29.618Z,101054.69
2024-02-18T14:59:38.134Z,101049.53
2024-02-18T15:09:42.343Z,101070.41
2024-02-18T15:19:45.356Z,101051.34
2024-02-18T15:29:49.650Z,101044.41
2024-02-18T15:39:52.477Z,101027.50
2024-02-18T15:49:57.863Z,101018.41
2024-02-18T16:00:00.761Z,101011.75
2024-02-18T16:10:05.414Z,100987.78
2024-02-18T16:20:09.490Z,100991.84
2024-02-18T16:30:16.611Z,100992.56
2024-02-18T16:40:19.671Z,100985.47
2024-02-18T16:50:23.938Z,100974.84
2024-02-18T17:00:28.204Z,100990.28
2024-02-18T17:10:32.874Z,100970.72
2024-02-18T17:20:35.749Z,100965.72
2024-02-18T17:30:40.677Z,100952.88
2024-02-18T17:40:43.633Z,100932.69
2024-02-18T17:50:47.850Z,100933.25
2024-02-18T18:00:50.724Z,100939.41
2024-02-18T18:10:55.001Z,100925.53
2024-02-18T18:20:57.794Z,100915.00
2024-02-18T18:31:02.090Z,100907.28
2024-02-18T18:41:05.230Z,100901.00
2024-02-18T18:51:09.460Z,100902.53
2024-02-18T19:01:12.300Z,100920.41
2024-02-18T19:11:16.848Z,100914.00
2024-02-18T19:21:20.524Z,100899.25
2024-02-18T19:31:25.113Z,100900.84
2024-02-18T19:41:27.990Z,100903.84
2024-02-18T19:51:32.167Z,100890.84
2024-02-18T20:01:35.195Z,100877.69
2024-02-18T20:11:43.460Z,100882.69
2024-02-18T20:21:47.750Z,100896.53
2024-02-18T20:31:52.086Z,100894.25
2024-02-18T20:41:54.897Z,100882.94
2024-02-18T20:51:59.098Z,100880.41
2024-02-18T21:02:02.160Z,100890.34
2024-02-18T21:12:07.881Z,100890.22
2024-02-18T21:22:10.764Z,100878.88
2024-02-18T21:32:14.945Z,100890.16
2024-02-18T21:42:17.755Z,100868.28
2024-02-18T21:52:21.961Z,100855.25
2024-02-18T22:02:24.808Z,100872.84
2024-02-18T22:12:29.008Z,100866.25
2024-02-18T22:22:31.802Z,100847.50
2024-02-18T22:32:35.981Z,100865.94
2024-02-18T22:42:38.925Z,100859.00
2024-02-18T22:52:43.153Z,100876.53
2024-02-18T23:02:46.256Z,100867.28
2024-02-18T23:12:50.660Z,100879.97
2024-02-18T23:22:53.507Z,100876.94
2024-02-18T23:32:57.794Z,100885.22
2024-02-18T23:43:00.725Z,100899.22
2024-02-18T23:53:05.345Z,100899.50
